createdAt,value
2018-05-17T00:01:54.964Z,12.60
2018-05-17T00:04:22.567Z,12.60
2018-05-17T00:06:50.073Z,12.60
2018-05-17T00:09:17.613Z,12.60
2018-05-17T00:11:45.939Z,12.50
2018-05-17T00:14:13.481Z,12.50
2018-05-17T00:16:41.009Z,12.50
2018-05-17T00:19:08.578Z,12.50
2018-05-17T00:21:36.915Z,12.50
2018-05-17T00:24:04.479Z,12.50
2018-05-17T00:26:32.038Z,12.50
2018-05-17T00:28:59.597Z,12.50
2018-05-17T00:31:27.174Z,12.50
2018-05-17T00:33:54.717Z,12.50
2018-05-17T00:36:22.299Z,12.50
2018-05-17T00:38:49.862Z,12.50
2018-05-17T00:41:17.408Z,12.50
2018-05-17T00:43:44.955Z,12.50
2018-05-17T00:46:13.262Z,12.40
2018-05-17T00:48:40.810Z,12.40
2018-05-17T00:51:08.379Z,12.50
2018-05-17T00:53:35.955Z,12.50
2018-05-17T00:56:03.534Z,12.50
2018-05-17T00:58:31.089Z,12.50
2018-05-17T01:00:58.655Z,12.50
2018-05-17T01:03:26.190Z,12.50
2018-05-17T01:05:53.802Z,12.40
2018-05-17T01:08:21.346Z,12.50
2018-05-17T01:10:48.890Z,12.50
2018-05-17T01:13:16.460Z,12.50
2018-05-17T01:15:44.029Z,12.50
2018-05-17T01:18:11.575Z,12.50
2018-05-17T01:20:39.126Z,12.50
2018-05-17T01:23:07.466Z,12.50
2018-05-17T01:25:35.031Z,12.50
2018-05-17T01:28:02.599Z,12.50
2018-05-17T01:30:30.143Z,12.50
2018-05-17T01:32:57.700Z,12.50
2018-05-17T01:35:25.241Z,12.50
2018-05-17T01:38:04.692Z,12.50
2018-05-17T01:40:32.239Z,12.50
2018-05-17T01:42:59.795Z,12.50
2018-05-17T01:45:27.361Z,12.50
2018-05-17T01:47:54.910Z,12.50
2018-05-17T01:50:23.234Z,12.50
2018-05-17T01:52:50.803Z,12.50
2018-05-17T01:55:18.370Z,12.50
2018-05-17T01:57:45.926Z,12.50
2018-05-17T02:00:13.582Z,12.60
2018-05-17T02:02:41.081Z,12.60
2018-05-17T02:05:08.657Z,12.60
2018-05-17T02:07:36.216Z,12.60
2018-05-17T02:10:03.858Z,12.70
2018-05-17T02:12:31.407Z,12.70
2018-05-17T02:14:58.968Z,12.70
2018-05-17T02:17:26.543Z,12.70
2018-05-17T02:19:54.115Z,12.70
2018-05-17T02:22:21.710Z,12.70
2018-05-17T02:24:49.259Z,12.70
2018-05-17T02:27:16.810Z,12.70
2018-05-17T02:29:44.368Z,12.70
2018-05-17T02:32:11.922Z,12.70
2018-05-17T02:34:39.491Z,12.70
2018-05-17T02:37:07.029Z,12.70
2018-05-17T02:39:34.584Z,12.70
2018-05-17T02:42:02.897Z,12.70
2018-05-17T02:44:30.484Z,12.70
2018-05-17T02:46:58.041Z,12.70
2018-05-17T02:49:25.600Z,12.70
2018-05-17T02:51:53.251Z,12.70
2018-05-17T02:54:20.761Z,12.70
2018-05-17T02:56:48.317Z,12.70
2018-05-17T02:59:15.861Z,12.70
2018-05-17T03:01:43.418Z,12.70
2018-05-17T03:04:11.027Z,12.70
2018-05-17T03:06:38.603Z,12.70
2018-05-17T03:09:06.939Z,12.70
2018-05-17T03:11:34.563Z,12.70
2018-05-17T03:14:02.111Z,12.70
2018-05-17T03:16:30.442Z,12.60
2018-05-17T03:18:57.977Z,12.60
2018-05-17T03:21:26.287Z,12.70
2018-05-17T03:23:53.833Z,12.70
2018-05-17T03:26:21.378Z,12.60
2018-05-17T03:28:49.710Z,12.60
2018-05-17T03:31:17.250Z,12.60
2018-05-17T03:33:44.794Z,12.60
2018-05-17T03:36:12.343Z,12.60
2018-05-17T03:38:40.681Z,12.60
2018-05-17T03:41:08.247Z,12.60
2018-05-17T03:43:35.818Z,12.60
2018-05-17T03:46:03.378Z,12.60
2018-05-17T03:48:30.920Z,12.60
2018-05-17T03:50:58.486Z,12.60
2018-05-17T03:53:26.039Z,12.60
2018-05-17T03:55:53.607Z,12.60
2018-05-17T03:58:21.174Z,12.60
2018-05-17T04:01:00.454Z,12.60
2018-05-17T04:03:39.849Z,12.60
2018-05-17T04:06:19.159Z,12.60
2018-05-17T04:08:46.703Z,12.60
2018-05-17T04:11:16.055Z,12.70
2018-05-17T04:13:43.607Z,12.60
2018-05-17T04:16:11.158Z,12.70
2018-05-17T04:18:38.705Z,12.70
2018-05-17T04:21:07.012Z,12.70
2018-05-17T04:23:34.548Z,12.70
2018-05-17T04:26:02.137Z,12.70
2018-05-17T04:28:29.701Z,12.70
2018-05-17T04:30:57.270Z,12.80
2018-05-17T04:33:24.814Z,12.80
2018-05-17T04:35:52.358Z,12.80
2018-05-17T04:38:20.661Z,12.90
2018-05-17T04:40:48.231Z,12.90
2018-05-17T04:43:15.807Z,13.00
2018-05-17T04:45:43.355Z,13.00
2018-05-17T04:48:10.893Z,13.00
2018-05-17T04:50:38.424Z,13.10
2018-05-17T04:53:05.975Z,13.10
2018-05-17T04:55:33.517Z,13.20
2018-05-17T04:58:01.094Z,13.20
2018-05-17T05:00:28.629Z,13.30
2018-05-17T05:02:56.954Z,13.40
2018-05-17T05:05:24.520Z,13.30
2018-05-17T05:07:52.058Z,13.30
2018-05-17T05:10:19.639Z,13.30
2018-05-17T05:12:47.188Z,13.30
2018-05-17T05:15:14.746Z,13.30
2018-05-17T05:17:42.294Z,13.30
2018-05-17T05:20:10.630Z,13.30
2018-05-17T05:22:38.202Z,13.20
2018-05-17T05:25:05.775Z,13.20
2018-05-17T05:27:33.360Z,13.20
2018-05-17T05:30:01.693Z,13.20
2018-05-17T05:32:29.244Z,13.20
2018-05-17T05:34:56.815Z,13.20
2018-05-17T05:37:24.371Z,13.20
2018-05-17T05:39:51.920Z,13.30
2018-05-17T05:42:19.497Z,13.30
2018-05-17T05:44:47.056Z,13.40
2018-05-17T05:47:14.615Z,13.50
2018-05-17T05:49:42.215Z,13.50
2018-05-17T05:52:09.758Z,13.60
2018-05-17T05:54:37.299Z,13.70
2018-05-17T05:57:04.893Z,13.70
2018-05-17T05:59:32.472Z,13.70
2018-05-17T06:02:00.041Z,13.70
2018-05-17T06:04:27.660Z,13.70
2018-05-17T06:06:55.206Z,13.70
2018-05-17T06:09:23.542Z,13.70
2018-05-17T06:11:51.096Z,13.60
2018-05-17T06:14:18.641Z,13.70
2018-05-17T06:16:46.188Z,13.60
2018-05-17T06:19:14.505Z,13.60
2018-05-17T06:21:42.072Z,13.60
2018-05-17T06:24:09.650Z,13.70
2018-05-17T06:26:37.270Z,13.70
2018-05-17T06:29:04.831Z,13.70
2018-05-17T06:31:33.159Z,13.90
2018-05-17T06:34:00.739Z,13.90
2018-05-17T06:36:28.291Z,13.90
2018-05-17T06:38:55.825Z,14.00
2018-05-17T06:41:23.408Z,14.10
2018-05-17T06:43:51.004Z,14.20
2018-05-17T06:46:18.555Z,14.30
2018-05-17T06:48:46.128Z,14.40
2018-05-17T06:51:13.694Z,14.50
2018-05-17T06:53:41.271Z,14.50
2018-05-17T06:56:09.607Z,14.70
2018-05-17T06:58:37.156Z,14.70
2018-05-17T07:01:04.832Z,14.80
2018-05-17T07:03:32.318Z,14.80
2018-05-17T07:05:59.872Z,14.90
2018-05-17T07:08:27.424Z,14.90
2018-05-17T07:10:54.995Z,14.90
2018-05-17T07:13:22.545Z,14.90
2018-05-17T07:15:50.078Z,14.80
2018-05-17T07:18:18.660Z,14.80
2018-05-17T07:20:46.013Z,14.80
2018-05-17T07:23:13.553Z,14.80
2018-05-17T07:25:41.159Z,14.80
2018-05-17T07:28:08.704Z,14.70
2018-05-17T07:30:37.013Z,14.60
2018-05-17T07:33:04.600Z,14.60
2018-05-17T07:35:32.153Z,14.60
2018-05-17T07:37:59.713Z,14.60
2018-05-17T07:40:27.255Z,14.50
2018-05-17T07:42:55.631Z,14.60
2018-05-17T07:45:23.961Z,14.60
2018-05-17T07:47:51.537Z,14.60
2018-05-17T07:50:19.083Z,14.70
2018-05-17T07:52:46.655Z,14.90
2018-05-17T07:55:14.234Z,15.10
2018-05-17T07:57:41.810Z,15.30
2018-05-17T08:00:09.387Z,15.40
2018-05-17T08:02:36.962Z,15.60
2018-05-17T08:05:05.304Z,15.70
2018-05-17T08:07:32.870Z,15.70
2018-05-17T08:10:00.433Z,15.60
2018-05-17T08:12:28.026Z,15.60
2018-05-17T08:14:55.582Z,15.50
2018-05-17T08:17:23.199Z,15.60
2018-05-17T08:19:50.771Z,15.60
2018-05-17T08:22:18.348Z,15.50
2018-05-17T08:24:45.919Z,15.40
2018-05-17T08:27:13.546Z,15.30
2018-05-17T08:29:41.105Z,15.30
2018-05-17T08:32:08.641Z,15.20
2018-05-17T08:34:36.186Z,15.10
2018-05-17T08:37:03.726Z,15.20
2018-05-17T08:39:31.275Z,15.20
2018-05-17T08:41:58.848Z,15.20
2018-05-17T08:44:26.410Z,15.20
2018-05-17T08:46:53.967Z,15.20
2018-05-17T08:49:21.524Z,15.20
2018-05-17T08:51:49.063Z,15.30
2018-05-17T08:54:17.426Z,15.40
2018-05-17T08:56:44.951Z,15.40
2018-05-17T08:59:12.500Z,15.50
2018-05-17T09:01:40.087Z,15.60
2018-05-17T09:04:07.625Z,15.60
2018-05-17T09:06:35.205Z,15.80
2018-05-17T09:09:02.807Z,15.90
2018-05-17T09:11:30.382Z,16.00
2018-05-17T09:13:57.933Z,16.20
2018-05-17T09:16:25.543Z,16.30
2018-05-17T09:18:53.095Z,16.50
2018-05-17T09:21:21.431Z,16.50
2018-05-17T09:23:48.984Z,16.50
2018-05-17T09:26:16.532Z,16.60
2018-05-17T09:28:44.081Z,16.80
2018-05-17T09:31:11.619Z,16.90
2018-05-17T09:33:39.187Z,16.80
2018-05-17T09:36:07.526Z,17.00
2018-05-17T09:38:35.085Z,16.90
2018-05-17T09:41:02.636Z,17.00
2018-05-17T09:43:30.182Z,17.30
2018-05-17T09:45:57.731Z,17.20
2018-05-17T09:48:26.083Z,17.20
2018-05-17T09:50:53.617Z,17.10
2018-05-17T09:53:21.191Z,17.00
2018-05-17T09:55:48.733Z,17.10
2018-05-17T09:58:16.303Z,17.20
2018-05-17T10:00:47.800Z,17.20
2018-05-17T10:03:15.347Z,17.00
2018-05-17T10:05:42.896Z,17.10
2018-05-17T10:08:10.438Z,17.10
2018-05-17T10:10:38.054Z,17.10
2018-05-17T10:13:05.601Z,17.20
2018-05-17T10:15:33.249Z,17.30
2018-05-17T10:18:00.764Z,17.60
2018-05-17T10:20:29.107Z,18.20
2018-05-17T10:22:56.674Z,18.20
2018-05-17T10:25:24.213Z,18.50
2018-05-17T10:27:51.752Z,19.00
2018-05-17T10:30:20.087Z,19.00
2018-05-17T10:32:47.656Z,18.90
2018-05-17T10:35:15.208Z,18.90
2018-05-17T10:37:42.766Z,18.80
2018-05-17T10:40:10.399Z,18.80
2018-05-17T10:42:37.938Z,18.80
2018-05-17T10:45:05.539Z,18.90
2018-05-17T10:47:33.122Z,19.00
2018-05-17T10:50:00.661Z,18.90
2018-05-17T10:52:28.232Z,18.80
2018-05-17T10:54:55.778Z,18.70
2018-05-17T10:57:24.117Z,18.70
2018-05-17T10:59:51.657Z,18.70
2018-05-17T11:02:19.203Z,18.90
2018-05-17T11:04:46.761Z,19.10
2018-05-17T11:07:14.334Z,19.30
2018-05-17T11:09:41.946Z,19.30
2018-05-17T11:12:09.611Z,19.20
2018-05-17T11:14:37.151Z,19.70
2018-05-17T11:17:04.723Z,19.90
2018-05-17T11:19:32.256Z,20.10
2018-05-17T11:21:59.809Z,20.00
2018-05-17T11:24:27.383Z,19.80
2018-05-17T11:26:55.835Z,19.60
2018-05-17T11:29:23.401Z,19.40
2018-05-17T11:31:51.024Z,19.40
2018-05-17T11:34:18.648Z,19.40
2018-05-17T11:36:46.195Z,19.70
2018-05-17T11:39:13.733Z,20.00
2018-05-17T11:41:41.326Z,20.30
2018-05-17T11:44:09.704Z,20.30
2018-05-17T11:46:37.240Z,20.30
2018-05-17T11:49:04.776Z,20.20
2018-05-17T11:51:32.347Z,20.20
2018-05-17T11:53:59.894Z,20.10
2018-05-17T11:56:27.486Z,20.00
2018-05-17T11:58:55.059Z,19.80
2018-05-17T12:01:22.672Z,19.60
2018-05-17T12:03:50.995Z,19.40
2018-05-17T12:06:18.543Z,19.40
2018-05-17T12:08:46.077Z,19.50
2018-05-17T12:11:14.386Z,19.70
2018-05-17T12:13:41.947Z,19.60
2018-05-17T12:16:09.495Z,19.60
2018-05-17T12:18:37.042Z,19.70
2018-05-17T12:21:05.341Z,20.00
2018-05-17T12:23:33.670Z,19.90
2018-05-17T12:26:01.231Z,19.90
2018-05-17T12:28:28.784Z,19.70
2018-05-17T12:30:56.362Z,19.40
2018-05-17T12:33:23.899Z,19.20
2018-05-17T12:35:51.474Z,19.10
2018-05-17T12:38:19.023Z,18.90
2018-05-17T12:40:46.687Z,18.70
2018-05-17T12:43:14.238Z,18.70
2018-05-17T12:45:41.844Z,18.40
2018-05-17T12:48:09.411Z,18.20
2018-05-17T12:50:36.992Z,18.10
2018-05-17T12:53:04.559Z,17.90
2018-05-17T12:55:32.116Z,17.70
2018-05-17T12:57:59.679Z,17.60
2018-05-17T13:00:27.967Z,17.50
2018-05-17T13:02:55.535Z,17.40
2018-05-17T13:05:23.941Z,17.30
2018-05-17T13:07:52.249Z,16.90
2018-05-17T13:10:19.907Z,16.90
2018-05-17T13:12:47.484Z,16.90
2018-05-17T13:15:15.059Z,16.80
2018-05-17T13:17:42.611Z,16.70
2018-05-17T13:20:10.206Z,16.60
2018-05-17T13:22:37.787Z,16.50
2018-05-17T13:25:05.388Z,16.40
2018-05-17T13:27:32.942Z,16.40
2018-05-17T13:30:01.255Z,16.10
2018-05-17T13:32:28.799Z,16.10
2018-05-17T13:34:57.116Z,15.80
2018-05-17T13:37:24.787Z,15.80
2018-05-17T13:39:52.233Z,15.80
2018-05-17T13:42:19.790Z,15.60
2018-05-17T13:44:47.326Z,15.50
2018-05-17T13:47:15.662Z,15.40
2018-05-17T13:49:43.225Z,15.40
2018-05-17T13:52:10.761Z,15.40
2018-05-17T13:54:38.350Z,15.40
2018-05-17T13:57:05.904Z,15.40
2018-05-17T13:59:33.468Z,15.40
2018-05-17T14:02:01.060Z,15.40
2018-05-17T14:04:28.864Z,15.40
2018-05-17T14:06:57.807Z,15.40
2018-05-17T14:09:25.353Z,15.40
2018-05-17T14:11:52.911Z,15.50
2018-05-17T14:14:20.449Z,15.50
2018-05-17T14:16:49.416Z,15.50
2018-05-17T14:19:16.997Z,15.50
2018-05-17T14:21:44.546Z,15.40
2018-05-17T14:24:12.095Z,15.50
2018-05-17T14:26:39.643Z,15.50
2018-05-17T14:29:07.210Z,15.50
2018-05-17T14:31:34.779Z,15.40
2018-05-17T14:34:02.357Z,15.30
2018-05-17T14:36:29.910Z,15.20
2018-05-17T14:38:57.485Z,15.00
2018-05-17T14:41:25.045Z,14.90
2018-05-17T14:43:53.628Z,14.80
2018-05-17T14:46:21.173Z,14.80
2018-05-17T14:48:48.771Z,14.70
2018-05-17T14:51:16.440Z,14.70
2018-05-17T14:53:44.029Z,14.70
2018-05-17T14:56:12.370Z,14.80
2018-05-17T14:58:39.939Z,14.80
2018-05-17T15:01:07.559Z,14.80
2018-05-17T15:03:35.094Z,14.80
2018-05-17T15:06:03.413Z,14.90
2018-05-17T15:08:31.070Z,14.90
2018-05-17T15:10:59.343Z,14.90
2018-05-17T15:13:26.957Z,15.00
2018-05-17T15:15:54.510Z,15.00
2018-05-17T15:18:22.046Z,15.00
2018-05-17T15:20:49.621Z,15.00
2018-05-17T15:23:17.191Z,15.10
2018-05-17T15:25:44.764Z,15.00
2018-05-17T15:28:12.407Z,15.00
2018-05-17T15:30:40.012Z,15.10
2018-05-17T15:33:07.556Z,15.20
2018-05-17T15:35:35.123Z,15.20
2018-05-17T15:38:02.699Z,15.20
2018-05-17T15:40:30.252Z,15.20
2018-05-17T15:42:57.823Z,15.10
2018-05-17T15:45:25.393Z,15.10
2018-05-17T15:47:52.957Z,15.10
2018-05-17T15:50:20.535Z,15.10
2018-05-17T15:52:48.099Z,15.20
2018-05-17T15:55:15.672Z,15.10
2018-05-17T15:57:43.252Z,15.20
2018-05-17T16:00:11.592Z,15.20
2018-05-17T16:02:39.140Z,15.20
2018-05-17T16:05:06.682Z,15.20
2018-05-17T16:07:34.221Z,15.10
2018-05-17T16:10:01.785Z,15.20
2018-05-17T16:12:29.386Z,15.20
2018-05-17T16:14:57.051Z,15.10
2018-05-17T16:17:24.499Z,15.10
2018-05-17T16:19:52.816Z,15.10
2018-05-17T16:22:20.370Z,15.10
2018-05-17T16:24:47.923Z,15.10
2018-05-17T16:27:15.501Z,15.10
2018-05-17T16:29:43.083Z,15.10
2018-05-17T16:32:10.655Z,15.00
2018-05-17T16:34:38.218Z,15.00
2018-05-17T16:37:05.796Z,15.00
2018-05-17T16:39:33.349Z,15.00
2018-05-17T16:42:00.902Z,15.00
2018-05-17T16:44:28.470Z,15.00
2018-05-17T16:46:56.046Z,15.00
2018-05-17T16:49:23.618Z,15.00
2018-05-17T16:51:51.230Z,15.00
2018-05-17T16:54:18.818Z,15.00
2018-05-17T16:56:46.436Z,15.00
2018-05-17T16:59:14.755Z,15.10
2018-05-17T17:01:42.293Z,15.10
2018-05-17T17:04:10.606Z,15.10
2018-05-17T17:06:38.194Z,15.10
2018-05-17T17:09:05.802Z,15.10
2018-05-17T17:11:34.167Z,15.00
2018-05-17T17:14:02.487Z,14.90
2018-05-17T17:16:30.039Z,15.00
2018-05-17T17:18:57.587Z,15.00
2018-05-17T17:21:25.899Z,15.00
2018-05-17T17:23:53.560Z,15.00
2018-05-17T17:26:21.034Z,15.00
2018-05-17T17:28:48.611Z,15.00
2018-05-17T17:31:16.149Z,15.00
2018-05-17T17:33:43.694Z,14.90
2018-05-17T17:36:12.051Z,14.90
2018-05-17T17:38:39.630Z,14.90
2018-05-17T17:41:07.956Z,14.90
2018-05-17T17:43:35.526Z,14.90
2018-05-17T17:46:03.071Z,14.90
2018-05-17T17:48:30.670Z,14.90
2018-05-17T17:50:58.213Z,14.90
2018-05-17T17:53:27.722Z,14.80
2018-05-17T17:55:55.309Z,14.80
2018-05-17T17:58:23.512Z,14.80
2018-05-17T18:00:51.111Z,14.80
2018-05-17T18:03:18.665Z,14.80
2018-05-17T18:05:47.096Z,14.80
2018-05-17T18:08:15.482Z,14.70
2018-05-17T18:10:43.080Z,14.70
2018-05-17T18:13:11.402Z,14.70
2018-05-17T18:15:39.044Z,14.70
2018-05-17T18:18:06.630Z,14.70
2018-05-17T18:20:34.221Z,14.70
2018-05-17T18:23:01.805Z,14.70
2018-05-17T18:25:29.345Z,14.60
2018-05-17T18:27:56.902Z,14.60
2018-05-17T18:30:24.446Z,14.50
2018-05-17T18:32:52.023Z,14.50
2018-05-17T18:35:19.583Z,14.40
2018-05-17T18:37:47.776Z,14.40
2018-05-17T18:40:15.320Z,14.30
2018-05-17T18:42:42.867Z,14.30
2018-05-17T18:45:10.414Z,14.20
2018-05-17T18:47:38.732Z,14.10
2018-05-17T18:50:06.306Z,14.20
2018-05-17T18:52:33.859Z,14.10
2018-05-17T18:55:01.468Z,14.10
2018-05-17T18:57:29.066Z,14.10
2018-05-17T18:59:56.625Z,14.00
2018-05-17T19:02:24.967Z,14.00
2018-05-17T19:04:52.523Z,13.90
2018-05-17T19:07:20.155Z,13.90
2018-05-17T19:09:47.733Z,13.90
2018-05-17T19:12:15.370Z,13.90
2018-05-17T19:14:43.701Z,13.80
2018-05-17T19:17:11.309Z,13.80
2018-05-17T19:19:38.887Z,13.80
2018-05-17T19:22:06.458Z,13.80
2018-05-17T19:24:34.007Z,13.80
2018-05-17T19:27:02.346Z,13.70
2018-05-17T19:29:29.922Z,13.70
2018-05-17T19:31:57.479Z,13.70
2018-05-17T19:34:25.041Z,13.70
2018-05-17T19:36:52.638Z,13.80
2018-05-17T19:39:20.973Z,13.70
2018-05-17T19:41:48.674Z,13.70
2018-05-17T19:44:16.145Z,13.60
2018-05-17T19:46:43.696Z,13.60
2018-05-17T19:49:11.254Z,13.60
2018-05-17T19:51:38.823Z,13.60
2018-05-17T19:54:06.357Z,13.50
2018-05-17T19:56:33.909Z,13.50
2018-05-17T19:59:01.490Z,13.50
2018-05-17T20:01:29.076Z,13.40
2018-05-17T20:03:56.632Z,13.40
2018-05-17T20:06:24.203Z,13.40
2018-05-17T20:08:51.826Z,13.30
2018-05-17T20:11:19.457Z,13.30
2018-05-17T20:13:47.015Z,13.20
2018-05-17T20:16:14.568Z,13.20
2018-05-17T20:18:42.231Z,13.10
2018-05-17T20:21:10.499Z,13.10
2018-05-17T20:23:38.063Z,13.10
2018-05-17T20:26:05.655Z,13.00
2018-05-17T20:28:33.212Z,13.00
2018-05-17T20:31:00.781Z,13.00
2018-05-17T20:33:28.338Z,13.00
2018-05-17T20:35:55.907Z,12.90
2018-05-17T20:38:23.479Z,12.80
2018-05-17T20:40:51.804Z,12.80
2018-05-17T20:43:19.371Z,12.70
2018-05-17T20:45:46.962Z,12.70
2018-05-17T20:48:14.530Z,12.80
2018-05-17T20:50:42.074Z,12.70
2018-05-17T20:53:09.639Z,12.60
2018-05-17T20:55:37.199Z,12.70
2018-05-17T20:58:04.796Z,12.60
2018-05-17T21:00:32.379Z,12.60
2018-05-17T21:03:00.708Z,12.60
2018-05-17T21:05:28.279Z,12.60
2018-05-17T21:07:55.828Z,12.50
2018-05-17T21:10:23.399Z,12.60
2018-05-17T21:12:51.023Z,12.60
2018-05-17T21:15:18.545Z,12.60
2018-05-17T21:17:46.111Z,12.50
2018-05-17T21:20:13.665Z,12.50
2018-05-17T21:22:41.225Z,12.50
2018-05-17T21:25:08.785Z,12.50
2018-05-17T21:27:36.326Z,12.40
2018-05-17T21:30:03.884Z,12.40
2018-05-17T21:32:31.462Z,12.40
2018-05-17T21:34:59.026Z,12.30
2018-05-17T21:37:26.591Z,12.30
2018-05-17T21:39:54.169Z,12.30
2018-05-17T21:42:21.752Z,12.30
2018-05-17T21:44:49.348Z,12.30
2018-05-17T21:47:16.916Z,12.30
2018-05-17T21:49:44.495Z,12.30
2018-05-17T21:52:12.034Z,12.20
2018-05-17T21:54:39.582Z,12.20
2018-05-17T21:57:07.158Z,12.30
2018-05-17T21:59:34.711Z,12.20
2018-05-17T22:02:02.303Z,12.20
2018-05-17T22:04:30.613Z,12.20
2018-05-17T22:06:58.181Z,12.10
2018-05-17T22:09:25.730Z,12.10
2018-05-17T22:11:54.039Z,12.20
2018-05-17T22:14:21.582Z,12.10
2018-05-17T22:16:49.155Z,12.20
2018-05-17T22:19:16.708Z,12.10
2018-05-17T22:21:44.281Z,12.10
2018-05-17T22:24:11.833Z,12.10
2018-05-17T22:26:39.411Z,12.10
2018-05-17T22:29:06.958Z,12.10
2018-05-17T22:31:35.298Z,12.00
2018-05-17T22:34:02.866Z,12.00
2018-05-17T22:36:30.445Z,12.00
2018-05-17T22:38:58.019Z,12.00
2018-05-17T22:41:26.352Z,11.90
2018-05-17T22:43:53.906Z,11.90
2018-05-17T22:46:21.478Z,11.90
2018-05-17T22:48:49.021Z,11.90
2018-05-17T22:51:16.576Z,11.80
2018-05-17T22:53:44.126Z,11.80
2018-05-17T22:56:32.982Z,11.70
2018-05-17T22:59:01.316Z,11.70
2018-05-17T23:01:28.896Z,11.70
2018-05-17T23:03:56.469Z,11.70
2018-05-17T23:06:24.039Z,11.70
2018-05-17T23:08:51.626Z,11.70
2018-05-17T23:11:19.207Z,11.70
2018-05-17T23:13:46.779Z,11.60
2018-05-17T23:16:14.348Z,11.60
2018-05-17T23:18:41.898Z,11.50
2018-05-17T23:21:09.474Z,11.50
2018-05-17T23:23:37.031Z,11.50
2018-05-17T23:26:04.573Z,11.50
2018-05-17T23:28:32.891Z,11.40
2018-05-17T23:31:00.462Z,11.40
2018-05-17T23:33:28.038Z,11.40
2018-05-17T23:35:55.585Z,11.40
2018-05-17T23:38:23.150Z,11.40
2018-05-17T23:41:12.269Z,11.40
2018-05-17T23:43:39.856Z,11.40
2018-05-17T23:46:07.397Z,11.30
2018-05-17T23:48:35.761Z,11.30
2018-05-17T23:51:04.090Z,11.30
2018-05-17T23:53:31.638Z,11.20
2018-05-17T23:55:59.202Z,11.20
2018-05-17T23:58:26.822Z,11.20
